createdAt,value
2022-09-01T00:01:56.605Z,5.57
2022-09-01T00:04:27.009Z,6.77
2022-09-01T00:06:56.333Z,4.73
2022-09-01T00:09:25.991Z,6.10
2022-09-01T00:11:55.742Z,6.67
2022-09-01T00:14:30.746Z,5.90
2022-09-01T00:16:59.826Z,6.90
2022-09-01T00:19:29.548Z,8.00
2022-09-01T00:21:58.350Z,5.43
2022-09-01T00:24:28.488Z,6.60
2022-09-01T00:26:58.052Z,5.73
2022-09-01T00:29:26.853Z,5.70
2022-09-01T00:31:55.282Z,8.50
2022-09-01T00:34:23.736Z,8.23
2022-09-01T00:36:52.036Z,6.47
2022-09-01T00:39:20.249Z,7.93
2022-09-01T00:41:51.238Z,5.97
2022-09-01T00:44:23.221Z,7.50
2022-09-01T00:46:55.414Z,6.43
2022-09-01T00:49:28.274Z,6.60
2022-09-01T00:52:00.612Z,7.43
2022-09-01T00:54:30.589Z,7.17
2022-09-01T00:57:00.544Z,7.17
2022-09-01T00:59:29.844Z,6.23
2022-09-01T01:01:59.347Z,6.40
2022-09-01T01:04:27.637Z,7.93
2022-09-01T01:07:02.208Z,6.00
2022-09-01T01:09:32.752Z,6.53
2022-09-01T01:12:03.423Z,6.83
2022-09-01T01:14:32.400Z,5.97
2022-09-01T01:17:01.516Z,5.67
2022-09-01T01:19:52.525Z,5.60
2022-09-01T01:22:42.180Z,5.30
2022-09-01T01:25:12.772Z,5.93
2022-09-01T01:27:43.017Z,5.17
2022-09-01T01:30:13.148Z,6.07
2022-09-01T01:32:43.119Z,6.97
2022-09-01T01:35:14.875Z,10.30
2022-09-01T01:37:45.812Z,5.53
2022-09-01T01:40:17.079Z,5.80
2022-09-01T01:42:46.851Z,8.47
2022-09-01T01:45:17.153Z,7.40
2022-09-01T01:47:53.254Z,6.00
2022-09-01T01:50:22.448Z,6.53
2022-09-01T01:52:58.288Z,6.33
2022-09-01T01:55:28.980Z,6.00
2022-09-01T01:57:57.495Z,7.93
2022-09-01T02:00:30.116Z,8.00
2022-09-01T02:02:59.669Z,8.27
2022-09-01T02:05:29.709Z,7.13
2022-09-01T02:07:59.846Z,6.50
2022-09-01T02:10:31.578Z,6.37
2022-09-01T02:13:03.539Z,6.37
2022-09-01T02:15:32.961Z,7.47
2022-09-01T02:18:05.038Z,7.00
2022-09-01T02:20:33.629Z,10.10
2022-09-01T02:23:10.483Z,6.67
2022-09-01T02:26:05.166Z,7.90
2022-09-01T02:28:34.876Z,6.37
2022-09-01T02:31:03.837Z,6.67
2022-09-01T02:33:33.079Z,6.27
2022-09-01T02:36:02.562Z,6.30
2022-09-01T02:38:31.144Z,7.00
2022-09-01T02:41:02.141Z,6.50
2022-09-01T02:43:31.858Z,5.93
2022-09-01T02:46:01.873Z,6.40
2022-09-01T02:48:32.827Z,6.07
2022-09-01T02:51:02.935Z,7.00
2022-09-01T02:53:31.546Z,6.47
2022-09-01T02:56:02.384Z,8.20
2022-09-01T02:58:32.968Z,6.17
2022-09-01T03:01:02.858Z,6.93
2022-09-01T03:03:31.201Z,6.20
2022-09-01T03:05:59.807Z,6.20
2022-09-01T03:08:28.027Z,5.83
2022-09-01T03:10:56.456Z,6.67
2022-09-01T03:13:26.095Z,6.47
2022-09-01T03:15:54.310Z,6.37
2022-09-01T03:18:22.655Z,6.40
2022-09-01T03:20:53.023Z,6.97
2022-09-01T03:23:21.333Z,6.40
2022-09-01T03:25:50.140Z,6.73
2022-09-01T03:28:18.719Z,8.30
2022-09-01T03:30:50.111Z,7.87
2022-09-01T03:33:18.952Z,6.43
2022-09-01T03:35:47.278Z,5.87
2022-09-01T03:38:21.918Z,6.80
2022-09-01T03:40:50.326Z,6.10
2022-09-01T03:43:19.917Z,7.53
2022-09-01T03:45:49.543Z,6.17
2022-09-01T03:48:18.130Z,7.57
2022-09-01T03:50:47.214Z,9.73
2022-09-01T03:53:15.952Z,6.43
2022-09-01T03:55:45.872Z,6.60
2022-09-01T03:58:18.886Z,6.53
2022-09-01T04:00:49.240Z,6.13
2022-09-01T04:03:28.330Z,7.77
2022-09-01T04:05:57.944Z,8.93
2022-09-01T04:08:32.320Z,6.67
2022-09-01T04:11:02.787Z,6.20
2022-09-01T04:13:33.841Z,7.57
2022-09-01T04:16:02.184Z,6.60
2022-09-01T04:18:31.020Z,6.03
2022-09-01T04:21:00.141Z,7.57
2022-09-01T04:23:30.068Z,6.00
2022-09-01T04:25:59.700Z,7.67
2022-09-01T04:28:35.788Z,6.87
2022-09-01T04:31:07.285Z,6.50
2022-09-01T04:33:38.904Z,7.57
2022-09-01T04:36:07.971Z,6.70
2022-09-01T04:38:37.080Z,6.00
2022-09-01T04:41:06.487Z,6.20
2022-09-01T04:43:34.761Z,6.30
2022-09-01T04:46:03.267Z,6.50
2022-09-01T04:48:31.745Z,7.20
2022-09-01T04:51:01.791Z,6.67
2022-09-01T04:53:29.999Z,6.43
2022-09-01T04:55:58.254Z,6.30
2022-09-01T04:58:26.855Z,6.47
2022-09-01T05:00:55.902Z,6.63
2022-09-01T05:03:24.887Z,6.50
2022-09-01T05:05:53.961Z,6.60
2022-09-01T05:08:24.883Z,6.37
2022-09-01T05:10:55.661Z,6.30
2022-09-01T05:13:24.508Z,6.40
2022-09-01T05:16:02.251Z,8.67
2022-09-01T05:18:30.785Z,7.57
2022-09-01T05:20:59.012Z,6.57
2022-09-01T05:23:30.835Z,5.90
2022-09-01T05:25:59.083Z,9.03
2022-09-01T05:28:27.335Z,10.87
2022-09-01T05:30:55.585Z,11.30
2022-09-01T05:33:24.583Z,7.77
2022-09-01T05:35:57.288Z,8.47
2022-09-01T05:38:25.614Z,19.37
2022-09-01T05:40:58.930Z,12.30
2022-09-01T05:43:27.783Z,9.67
2022-09-01T05:46:06.737Z,14.97
2022-09-01T05:48:40.169Z,16.00
2022-09-01T05:51:22.606Z,11.70
2022-09-01T05:53:59.075Z,14.03
2022-09-01T05:56:29.391Z,10.63
2022-09-01T06:01:50.371Z,7.53
2022-09-01T06:04:19.408Z,8.53
2022-09-01T06:07:05.975Z,8.03
2022-09-01T06:09:36.235Z,4.50
2022-09-01T06:12:06.661Z,9.00
2022-09-01T06:14:35.151Z,5.10
2022-09-01T06:17:03.687Z,3.67
2022-09-01T06:19:36.880Z,5.93
2022-09-01T06:22:05.764Z,5.93
2022-09-01T06:24:34.004Z,3.17
2022-09-01T06:27:02.267Z,4.43
2022-09-01T06:29:32.067Z,4.32
2022-09-01T06:32:02.256Z,4.28
2022-09-01T06:34:31.942Z,4.57
2022-09-01T06:37:00.154Z,3.95
2022-09-01T06:39:28.422Z,3.95
2022-09-01T06:41:58.994Z,8.20
2022-09-01T06:44:27.273Z,3.08
2022-09-01T06:46:56.923Z,6.28
2022-09-01T06:49:33.066Z,6.47
2022-09-01T06:52:02.743Z,4.78
2022-09-01T06:54:34.227Z,3.38
2022-09-01T06:58:03.487Z,4.05
2022-09-01T06:59:54.044Z,3.92
2022-09-01T07:02:26.492Z,2.80
2022-09-01T07:04:56.013Z,4.95
2022-09-01T07:10:21.428Z,2.28
2022-09-01T07:13:07.062Z,3.92
2022-09-01T07:18:26.382Z,4.32
2022-09-01T07:21:05.514Z,1.85
2022-09-01T07:23:47.410Z,1.98
2022-09-01T07:26:27.326Z,1.95
2022-09-01T07:29:04.226Z,2.42
2022-09-01T07:32:43.997Z,4.78
2022-09-01T07:34:42.179Z,3.65
2022-09-01T07:38:46.824Z,2.70
2022-09-01T07:43:12.850Z,2.72
2022-09-01T07:45:47.869Z,3.30
2022-09-01T07:51:35.533Z,3.22
2022-09-01T07:53:57.001Z,3.92
2022-09-01T07:56:25.865Z,3.30
2022-09-01T07:58:54.426Z,3.17
2022-09-01T08:01:23.695Z,7.00
2022-09-01T08:03:53.232Z,3.03
2022-09-01T08:06:24.848Z,3.25
2022-09-01T08:08:57.463Z,3.00
2022-09-01T08:11:51.542Z,4.43
2022-09-01T08:14:18.135Z,1.80
2022-09-01T08:16:54.111Z,2.38
2022-09-01T08:19:23.709Z,3.80
2022-09-01T08:21:53.266Z,1.75
2022-09-01T08:24:22.201Z,4.10
2022-09-01T08:26:50.553Z,1.95
2022-09-01T08:29:18.821Z,3.80
2022-09-01T08:31:48.181Z,2.85
2022-09-01T08:34:16.974Z,2.83
2022-09-01T08:36:45.207Z,2.75
2022-09-01T08:39:14.817Z,4.07
2022-09-01T08:41:47.191Z,2.47
2022-09-01T08:44:21.120Z,2.33
2022-09-01T08:46:50.729Z,2.50
2022-09-01T08:49:26.168Z,3.63
2022-09-01T08:52:00.964Z,2.08
2022-09-01T08:54:37.398Z,3.95
2022-09-01T08:57:08.225Z,3.85
2022-09-01T08:59:36.493Z,4.07
2022-09-01T09:02:16.566Z,3.00
2022-09-01T09:04:52.747Z,2.80
2022-09-01T09:07:26.148Z,2.75
2022-09-01T09:09:59.330Z,3.78
2022-09-01T09:12:49.425Z,3.05
2022-09-01T09:15:23.498Z,4.63
2022-09-01T09:18:00.198Z,1.63
2022-09-01T09:20:28.908Z,2.00
2022-09-01T09:22:59.743Z,3.47
2022-09-01T09:25:31.007Z,3.53
2022-09-01T09:28:01.204Z,2.97
2022-09-01T09:30:31.432Z,2.97
2022-09-01T09:35:54.173Z,4.22
2022-09-01T09:38:28.839Z,3.30
2022-09-01T09:41:20.333Z,2.08
2022-09-01T09:43:55.857Z,2.00
2022-09-01T09:46:28.501Z,2.70
2022-09-01T09:49:19.315Z,3.47
2022-09-01T09:51:58.848Z,3.10
2022-09-01T09:54:28.280Z,4.77
2022-09-01T09:57:12.201Z,4.80
2022-09-01T09:59:57.650Z,2.83
2022-09-01T10:02:32.072Z,2.00
2022-09-01T10:05:00.532Z,2.00
2022-09-01T10:07:33.429Z,2.73
2022-09-01T10:10:02.774Z,2.10
2022-09-01T10:12:33.096Z,3.37
2022-09-01T10:15:11.988Z,2.00
2022-09-01T10:17:43.558Z,4.93
2022-09-01T10:20:14.665Z,3.33
2022-09-01T10:22:42.912Z,1.87
2022-09-01T10:25:16.364Z,6.33
2022-09-01T10:27:49.211Z,7.60
2022-09-01T10:30:24.264Z,1.90
2022-09-01T10:32:55.927Z,4.47
2022-09-01T10:35:26.801Z,2.27
2022-09-01T10:37:56.194Z,4.00
2022-09-01T10:40:43.614Z,1.60
2022-09-01T10:43:28.389Z,3.73
2022-09-01T10:46:03.666Z,3.20
2022-09-01T10:48:47.973Z,2.33
2022-09-01T10:51:50.529Z,5.77
2022-09-01T10:54:38.514Z,2.40
2022-09-01T10:57:08.909Z,5.07
2022-09-01T10:59:44.298Z,1.80
2022-09-01T11:02:23.619Z,3.43
2022-09-01T11:05:14.292Z,3.67
2022-09-01T11:08:01.518Z,5.93
2022-09-01T11:10:35.733Z,2.67
2022-09-01T11:13:15.710Z,3.53
2022-09-01T11:15:46.459Z,3.40
2022-09-01T11:18:17.641Z,9.03
2022-09-01T11:20:48.233Z,2.10
2022-09-01T11:23:23.096Z,3.83
2022-09-01T11:28:42.805Z,5.33
2022-09-01T11:31:27.539Z,1.57
2022-09-01T11:34:15.999Z,2.07
2022-09-01T11:37:00.220Z,5.27
2022-09-01T11:39:36.617Z,2.33
2022-09-01T11:42:07.957Z,4.50
2022-09-01T11:44:41.115Z,1.93
2022-09-01T11:47:17.240Z,4.50
2022-09-01T11:49:50.973Z,2.07
2022-09-01T11:52:20.350Z,2.73
2022-09-01T11:54:48.568Z,2.13
2022-09-01T11:57:21.150Z,1.80
2022-09-01T11:59:49.348Z,2.97
2022-09-01T12:02:23.074Z,4.30
2022-09-01T12:04:51.725Z,4.93
2022-09-01T12:07:27.609Z,2.60
2022-09-01T12:09:55.913Z,2.20
2022-09-01T12:12:29.238Z,2.80
2022-09-01T12:15:05.677Z,2.00
2022-09-01T12:17:36.228Z,3.90
2022-09-01T12:20:29.702Z,8.07
2022-09-01T12:22:58.876Z,2.37
2022-09-01T12:25:28.820Z,1.97
2022-09-01T12:27:57.132Z,2.00
2022-09-01T12:30:25.881Z,5.37
2022-09-01T12:33:22.815Z,3.43
2022-09-01T12:35:45.210Z,3.87
2022-09-01T12:38:26.496Z,4.40
2022-09-01T12:40:55.615Z,3.07
2022-09-01T12:43:30.871Z,2.73
2022-09-01T12:46:02.931Z,3.13
2022-09-01T12:48:35.684Z,6.40
2022-09-01T12:51:05.551Z,3.60
2022-09-01T12:53:37.115Z,2.87
2022-09-01T12:56:07.631Z,3.10
2022-09-01T12:58:35.861Z,2.67
2022-09-01T13:01:05.777Z,4.87
2022-09-01T13:03:38.444Z,2.67
2022-09-01T13:06:07.960Z,2.13
2022-09-01T13:08:37.803Z,3.73
2022-09-01T13:11:07.619Z,3.90
2022-09-01T13:13:36.154Z,5.77
2022-09-01T13:16:12.851Z,2.57
2022-09-01T13:21:32.273Z,2.20
2022-09-01T13:24:00.543Z,2.97
2022-09-01T13:26:31.270Z,2.70
2022-09-01T13:28:59.917Z,4.43
2022-09-01T13:31:29.934Z,3.10
2022-09-01T13:34:20.441Z,5.97
2022-09-01T13:36:52.178Z,2.30
2022-09-01T13:39:22.743Z,3.10
2022-09-01T13:41:51.268Z,2.63
2022-09-01T13:44:19.917Z,4.07
2022-09-01T13:50:06.320Z,4.37
2022-09-01T13:52:26.162Z,2.87
2022-09-01T13:54:54.412Z,2.33
2022-09-01T13:57:22.666Z,3.23
2022-09-01T13:59:50.904Z,5.50
2022-09-01T14:02:19.404Z,4.23
2022-09-01T14:04:49.092Z,2.37
2022-09-01T14:07:18.825Z,2.20
2022-09-01T14:09:47.148Z,3.67
2022-09-01T14:12:15.385Z,2.60
2022-09-01T14:17:31.776Z,2.63
2022-09-01T14:20:01.324Z,3.63
2022-09-01T14:22:29.948Z,3.13
2022-09-01T14:24:58.548Z,2.73
2022-09-01T14:27:26.820Z,4.13
2022-09-01T14:29:55.180Z,3.03
2022-09-01T14:32:27.081Z,2.10
2022-09-01T14:34:55.552Z,3.00
2022-09-01T14:37:25.426Z,2.33
2022-09-01T14:39:54.256Z,3.23
2022-09-01T14:42:25.634Z,3.40
2022-09-01T14:44:53.933Z,5.70
2022-09-01T14:47:24.724Z,2.20
2022-09-01T14:49:53.277Z,4.50
2022-09-01T14:52:22.283Z,2.37
2022-09-01T14:54:51.836Z,4.37
2022-09-01T14:57:37.401Z,2.53
2022-09-01T15:00:10.065Z,2.30
2022-09-01T15:02:38.349Z,4.47
2022-09-01T15:05:07.609Z,2.77
2022-09-01T15:07:36.040Z,4.77
2022-09-01T15:10:06.086Z,2.67
2022-09-01T15:12:34.421Z,8.27
2022-09-01T15:15:02.950Z,4.27
2022-09-01T15:17:31.255Z,3.67
2022-09-01T15:20:20.184Z,2.30
2022-09-01T15:22:49.525Z,2.70
2022-09-01T15:25:19.275Z,5.60
2022-09-01T15:27:47.807Z,2.13
2022-09-01T15:30:17.731Z,3.03
2022-09-01T15:32:46.737Z,5.53
2022-09-01T15:35:15.300Z,3.03
2022-09-01T15:37:43.755Z,2.73
2022-09-01T15:40:12.723Z,2.20
2022-09-01T15:42:42.407Z,4.47
2022-09-01T15:45:12.599Z,4.40
2022-09-01T15:47:44.895Z,2.43
2022-09-01T15:50:20.951Z,2.23
2022-09-01T15:52:51.513Z,2.47
2022-09-01T15:55:21.308Z,2.73
2022-09-01T15:57:51.625Z,2.70
2022-09-01T16:00:20.190Z,3.07
2022-09-01T16:02:48.400Z,4.20
2022-09-01T16:05:17.772Z,3.27
2022-09-01T16:07:46.389Z,2.50
2022-09-01T16:10:14.694Z,4.10
2022-09-01T16:12:44.179Z,4.13
2022-09-01T16:15:15.608Z,3.97
2022-09-01T16:17:59.048Z,5.27
2022-09-01T16:20:28.716Z,4.37
2022-09-01T16:22:57.712Z,3.77
2022-09-01T16:25:29.701Z,4.03
2022-09-01T16:27:58.647Z,2.50
2022-09-01T16:30:30.977Z,2.33
2022-09-01T16:33:00.437Z,4.17
2022-09-01T16:35:33.257Z,2.53
2022-09-01T16:38:10.488Z,2.60
2022-09-01T16:40:43.085Z,2.50
2022-09-01T16:43:15.360Z,5.50
2022-09-01T16:45:48.087Z,2.53
2022-09-01T16:48:20.029Z,3.47
2022-09-01T16:50:55.505Z,4.40
2022-09-01T16:53:38.859Z,2.77
2022-09-01T16:56:08.945Z,2.20
2022-09-01T16:58:46.155Z,4.13
2022-09-01T17:01:21.374Z,3.03
2022-09-01T17:03:55.546Z,2.73
2022-09-01T17:06:28.995Z,2.27
2022-09-01T17:09:02.592Z,3.07
2022-09-01T17:11:34.813Z,3.70
2022-09-01T17:14:03.703Z,6.40
2022-09-01T17:16:37.192Z,5.33
2022-09-01T17:19:07.094Z,5.17
2022-09-01T17:21:37.281Z,5.47
2022-09-01T17:24:12.423Z,3.73
2022-09-01T17:26:41.758Z,4.60
2022-09-01T17:29:12.420Z,6.77
2022-09-01T17:31:47.335Z,3.73
2022-09-01T17:34:23.991Z,3.40
2022-09-01T17:36:56.475Z,3.07
2022-09-01T17:39:30.548Z,3.03
2022-09-01T17:42:01.327Z,2.60
2022-09-01T17:44:35.506Z,6.43
2022-09-01T17:47:12.557Z,2.27
2022-09-01T17:49:46.044Z,2.90
2022-09-01T17:52:16.140Z,3.17
2022-09-01T17:54:48.374Z,2.60
2022-09-01T17:57:21.341Z,4.07
2022-09-01T17:59:52.676Z,6.57
2022-09-01T18:02:38.830Z,3.70
2022-09-01T18:05:09.789Z,2.40
2022-09-01T18:07:45.661Z,6.97
2022-09-01T18:10:16.168Z,2.57
2022-09-01T18:12:54.181Z,2.80
2022-09-01T18:15:24.236Z,3.50
2022-09-01T18:17:55.360Z,2.70
2022-09-01T18:20:26.273Z,2.57
2022-09-01T18:22:57.605Z,4.93
2022-09-01T18:25:26.955Z,3.13
2022-09-01T18:27:55.165Z,4.90
2022-09-01T18:30:42.844Z,4.53
2022-09-01T18:33:22.715Z,5.30
2022-09-01T18:35:54.842Z,3.10
2022-09-01T18:38:30.897Z,5.47
2022-09-01T18:41:05.454Z,4.20
2022-09-01T18:43:37.810Z,3.40
2022-09-01T18:46:11.784Z,4.27
2022-09-01T18:48:51.499Z,3.43
2022-09-01T18:51:25.471Z,4.53
2022-09-01T18:53:58.947Z,4.93
2022-09-01T18:56:34.344Z,2.53
2022-09-01T18:59:11.680Z,3.77
2022-09-01T19:01:46.915Z,2.77
2022-09-01T19:04:21.284Z,2.90
2022-09-01T19:06:54.044Z,3.10
2022-09-01T19:09:25.432Z,4.40
2022-09-01T19:12:00.505Z,2.93
2022-09-01T19:14:33.414Z,2.53
2022-09-01T19:17:13.986Z,3.10
2022-09-01T19:19:45.624Z,2.87
2022-09-01T19:22:17.560Z,3.40
2022-09-01T19:24:47.699Z,3.03
2022-09-01T19:27:17.857Z,3.03
2022-09-01T19:29:48.623Z,3.93
2022-09-01T19:32:19.752Z,2.87
2022-09-01T19:34:51.299Z,3.77
2022-09-01T19:37:19.670Z,4.23
2022-09-01T19:39:53.794Z,2.93
2022-09-01T19:42:26.035Z,2.47
2022-09-01T19:44:59.572Z,5.80
2022-09-01T19:47:36.916Z,4.00
2022-09-01T19:50:09.495Z,4.07
2022-09-01T19:52:40.468Z,2.70
2022-09-01T19:55:11.653Z,4.23
2022-09-01T19:57:41.459Z,3.63
2022-09-01T20:00:13.071Z,2.60
2022-09-01T20:02:45.031Z,2.33
2022-09-01T20:05:22.592Z,4.47
2022-09-01T20:07:53.927Z,5.10
2022-09-01T20:10:28.336Z,2.67
2022-09-01T20:13:08.129Z,2.70
2022-09-01T20:15:39.891Z,3.33
2022-09-01T20:18:15.027Z,4.37
2022-09-01T20:20:47.087Z,2.53
2022-09-01T20:23:18.240Z,2.90
2022-09-01T20:25:48.404Z,3.33
2022-09-01T20:28:21.155Z,4.20
2022-09-01T20:30:52.718Z,3.17
2022-09-01T20:33:23.654Z,3.00
2022-09-01T20:35:56.521Z,4.30
2022-09-01T20:38:44.433Z,4.60
2022-09-01T20:41:18.061Z,3.90
2022-09-01T20:43:48.250Z,4.63
2022-09-01T20:46:19.558Z,2.70
2022-09-01T20:48:47.966Z,5.10
2022-09-01T20:51:21.304Z,4.37
2022-09-01T20:53:56.306Z,2.90
2022-09-01T20:56:27.363Z,2.43
2022-09-01T20:58:58.156Z,3.60
2022-09-01T21:01:28.820Z,2.67
2022-09-01T21:04:03.769Z,3.53
2022-09-01T21:06:42.547Z,2.57
2022-09-01T21:09:13.050Z,2.80
2022-09-01T21:11:43.796Z,2.53
2022-09-01T21:14:31.439Z,2.43
2022-09-01T21:17:05.033Z,3.80
2022-09-01T21:19:41.368Z,3.67
2022-09-01T21:22:12.310Z,2.80
2022-09-01T21:24:41.991Z,2.80
2022-09-01T21:27:12.998Z,2.50
2022-09-01T21:29:52.092Z,2.50
2022-09-01T21:32:20.576Z,2.40
2022-09-01T21:34:50.473Z,3.27
2022-09-01T21:37:22.343Z,2.80
2022-09-01T21:39:53.964Z,2.67
2022-09-01T21:42:22.787Z,2.60
2022-09-01T21:44:51.691Z,3.27
2022-09-01T21:47:22.562Z,2.90
2022-09-01T21:49:50.897Z,3.40
2022-09-01T21:52:20.533Z,4.90
2022-09-01T21:54:49.131Z,2.33
2022-09-01T21:57:17.422Z,3.17
2022-09-01T21:59:45.672Z,3.17
2022-09-01T22:02:14.128Z,2.53
2022-09-01T22:04:42.429Z,2.57
2022-09-01T22:07:15.126Z,2.53
2022-09-01T22:09:45.018Z,4.80
2022-09-01T22:12:13.884Z,3.07
2022-09-01T22:14:42.128Z,2.93
2022-09-01T22:17:10.425Z,3.53
2022-09-01T22:19:38.725Z,2.73
2022-09-01T22:22:06.973Z,3.00
2022-09-01T22:24:35.225Z,2.80
2022-09-01T22:27:04.877Z,4.30
2022-09-01T22:29:33.126Z,3.83
2022-09-01T22:32:01.400Z,2.70
2022-09-01T22:34:29.656Z,4.13
2022-09-01T22:36:57.914Z,2.70
2022-09-01T22:39:26.163Z,2.60
2022-09-01T22:41:54.504Z,2.80
2022-09-01T22:44:24.273Z,2.60
2022-09-01T22:46:52.505Z,3.37
2022-09-01T22:49:20.758Z,2.60
2022-09-01T22:51:48.968Z,3.07
2022-09-01T22:54:17.236Z,4.50
2022-09-01T22:56:45.476Z,2.80
2022-09-01T22:59:15.284Z,2.80
2022-09-01T23:01:45.925Z,2.80
2022-09-01T23:04:15.453Z,2.70
2022-09-01T23:06:45.064Z,3.00
2022-09-01T23:09:13.576Z,2.60
2022-09-01T23:11:42.140Z,3.90
2022-09-01T23:14:10.816Z,2.43
2022-09-01T23:16:39.248Z,2.27
2022-09-01T23:19:09.128Z,6.47
2022-09-01T23:21:38.571Z,2.40
2022-09-01T23:24:07.634Z,4.83
2022-09-01T23:26:36.347Z,5.77
2022-09-01T23:29:05.376Z,4.33
2022-09-01T23:31:35.751Z,2.50
2022-09-01T23:34:04.640Z,2.37
2022-09-01T23:36:34.372Z,2.93
2022-09-01T23:39:02.829Z,2.83
2022-09-01T23:41:32.137Z,2.07
2022-09-01T23:44:02.793Z,3.33
2022-09-01T23:46:32.576Z,2.77
2022-09-01T23:49:00.888Z,2.47
2022-09-01T23:51:29.140Z,3.00
2022-09-01T23:53:58.806Z,3.33
2022-09-01T23:56:28.019Z,1.90
2022-09-01T23:58:56.307Z,2.03
